sensor_id;sensor_type;location;lat;lon;timestamp;temperature;humidity
78438;SHT31;67736;51.978;5.656;2023-11-19T00:01:57;15.3;79.9
78438;SHT31;67736;51.978;5.656;2023-11-19T00:04:26;15.4;79.8
78438;SHT31;67736;51.978;5.656;2023-11-19T00:06:57;15.4;79.7
78438;SHT31;67736;51.978;5.656;2023-11-19T00:09:33;15.4;79.6
78438;SHT31;67736;51.978;5.656;2023-11-19T00:12:06;15.4;79.5
78438;SHT31;67736;51.978;5.656;2023-11-19T00:14:37;15.4;79.3
78438;SHT31;67736;51.978;5.656;2023-11-19T00:17:07;15.4;79.3
78438;SHT31;67736;51.978;5.656;2023-11-19T00:19:36;15.4;79.2
78438;SHT31;67736;51.978;5.656;2023-11-19T00:22:06;15.5;79.1
78438;SHT31;67736;51.978;5.656;2023-11-19T00:24:35;15.5;79.0
78438;SHT31;67736;51.978;5.656;2023-11-19T00:27:05;15.5;78.8
78438;SHT31;67736;51.978;5.656;2023-11-19T00:29:35;15.5;78.7
78438;SHT31;67736;51.978;5.656;2023-11-19T00:32:05;15.5;78.5
78438;SHT31;67736;51.978;5.656;2023-11-19T00:34:35;15.5;78.3
78438;SHT31;67736;51.978;5.656;2023-11-19T00:37:04;15.5;78.3
78438;SHT31;67736;51.978;5.656;2023-11-19T00:39:34;15.6;78.2
78438;SHT31;67736;51.978;5.656;2023-11-19T00:42:04;15.6;78.1
78438;SHT31;67736;51.978;5.656;2023-11-19T00:44:34;15.6;78.0
78438;SHT31;67736;51.978;5.656;2023-11-19T00:47:04;15.6;77.8
78438;SHT31;67736;51.978;5.656;2023-11-19T00:49:34;15.6;77.7
78438;SHT31;67736;51.978;5.656;2023-11-19T00:52:03;15.6;77.7
78438;SHT31;67736;51.978;5.656;2023-11-19T00:54:33;15.6;77.6
78438;SHT31;67736;51.978;5.656;2023-11-19T00:57:03;15.6;77.5
78438;SHT31;67736;51.978;5.656;2023-11-19T00:59:33;15.6;77.4
78438;SHT31;67736;51.978;5.656;2023-11-19T01:02:02;15.6;77.3
78438;SHT31;67736;51.978;5.656;2023-11-19T01:04:35;15.6;77.2
78438;SHT31;67736;51.978;5.656;2023-11-19T01:07:06;15.6;77.2
78438;SHT31;67736;51.978;5.656;2023-11-19T01:09:42;15.6;77.2
78438;SHT31;67736;51.978;5.656;2023-11-19T01:12:11;15.6;77.0
78438;SHT31;67736;51.978;5.656;2023-11-19T01:14:41;15.6;77.0
78438;SHT31;67736;51.978;5.656;2023-11-19T01:17:10;15.6;76.8
78438;SHT31;67736;51.978;5.656;2023-11-19T01:19:40;15.7;76.7
78438;SHT31;67736;51.978;5.656;2023-11-19T01:22:09;15.7;76.7
78438;SHT31;67736;51.978;5.656;2023-11-19T01:24:39;15.7;76.7
78438;SHT31;67736;51.978;5.656;2023-11-19T01:27:08;15.7;76.5
78438;SHT31;67736;51.978;5.656;2023-11-19T01:29:38;15.6;76.4
78438;SHT31;67736;51.978;5.656;2023-11-19T01:32:08;15.6;76.4
78438;SHT31;67736;51.978;5.656;2023-11-19T01:34:40;15.6;76.3
78438;SHT31;67736;51.978;5.656;2023-11-19T01:37:10;15.6;76.2
78438;SHT31;67736;51.978;5.656;2023-11-19T01:39:43;15.6;76.1
78438;SHT31;67736;51.978;5.656;2023-11-19T01:42:13;15.6;76.0
78438;SHT31;67736;51.978;5.656;2023-11-19T01:44:56;15.6;76.0
78438;SHT31;67736;51.978;5.656;2023-11-19T01:47:28;15.6;75.9
78438;SHT31;67736;51.978;5.656;2023-11-19T01:50:01;15.6;75.8
78438;SHT31;67736;51.978;5.656;2023-11-19T01:52:34;15.6;75.8
78438;SHT31;67736;51.978;5.656;2023-11-19T01:55:06;15.6;75.8
78438;SHT31;67736;51.978;5.656;2023-11-19T01:57:38;15.6;75.8
78438;SHT31;67736;51.978;5.656;2023-11-19T02:00:10;15.6;75.8
78438;SHT31;67736;51.978;5.656;2023-11-19T02:02:41;15.6;75.6
78438;SHT31;67736;51.978;5.656;2023-11-19T02:05:12;15.6;75.6
78438;SHT31;67736;51.978;5.656;2023-11-19T02:07:44;15.6;75.5
78438;SHT31;67736;51.978;5.656;2023-11-19T02:10:16;15.6;75.1
78438;SHT31;67736;51.978;5.656;2023-11-19T02:12:46;15.6;74.9
78438;SHT31;67736;51.978;5.656;2023-11-19T02:15:17;15.6;74.7
78438;SHT31;67736;51.978;5.656;2023-11-19T02:17:47;15.6;74.7
78438;SHT31;67736;51.978;5.656;2023-11-19T02:20:17;15.5;74.6
78438;SHT31;67736;51.978;5.656;2023-11-19T02:22:47;15.5;74.5
78438;SHT31;67736;51.978;5.656;2023-11-19T02:25:29;15.5;74.5
78438;SHT31;67736;51.978;5.656;2023-11-19T02:28:01;15.5;74.5
78438;SHT31;67736;51.978;5.656;2023-11-19T02:30:32;15.5;74.3
78438;SHT31;67736;51.978;5.656;2023-11-19T02:33:02;15.5;74.3
78438;SHT31;67736;51.978;5.656;2023-11-19T02:35:33;15.4;74.2
78438;SHT31;67736;51.978;5.656;2023-11-19T02:38:03;15.4;74.1
78438;SHT31;67736;51.978;5.656;2023-11-19T02:40:34;15.4;73.9
78438;SHT31;67736;51.978;5.656;2023-11-19T02:43:04;15.4;73.8
78438;SHT31;67736;51.978;5.656;2023-11-19T02:45:34;15.4;73.7
78438;SHT31;67736;51.978;5.656;2023-11-19T02:48:04;15.4;73.7
78438;SHT31;67736;51.978;5.656;2023-11-19T02:50:34;15.4;73.5
78438;SHT31;67736;51.978;5.656;2023-11-19T02:53:06;15.3;73.3
78438;SHT31;67736;51.978;5.656;2023-11-19T02:55:35;15.3;73.2
78438;SHT31;67736;51.978;5.656;2023-11-19T02:58:08;15.3;73.1
78438;SHT31;67736;51.978;5.656;2023-11-19T03:00:43;15.3;72.9
78438;SHT31;67736;51.978;5.656;2023-11-19T03:03:19;15.2;72.9
78438;SHT31;67736;51.978;5.656;2023-11-19T03:05:50;15.2;72.8
78438;SHT31;67736;51.978;5.656;2023-11-19T03:08:19;15.2;72.8
78438;SHT31;67736;51.978;5.656;2023-11-19T03:10:49;15.2;72.8
78438;SHT31;67736;51.978;5.656;2023-11-19T03:13:19;15.1;72.9
78438;SHT31;67736;51.978;5.656;2023-11-19T03:15:51;15.1;72.8
78438;SHT31;67736;51.978;5.656;2023-11-19T03:18:21;15.1;72.8
78438;SHT31;67736;51.978;5.656;2023-11-19T03:20:50;15.0;72.8
78438;SHT31;67736;51.978;5.656;2023-11-19T03:23:21;15.0;72.8
78438;SHT31;67736;51.978;5.656;2023-11-19T03:25:50;15.0;72.8
78438;SHT31;67736;51.978;5.656;2023-11-19T03:28:20;15.0;72.8
78438;SHT31;67736;51.978;5.656;2023-11-19T03:30:52;14.9;72.8
78438;SHT31;67736;51.978;5.656;2023-11-19T03:33:22;14.9;72.8
78438;SHT31;67736;51.978;5.656;2023-11-19T03:35:56;14.9;72.8
78438;SHT31;67736;51.978;5.656;2023-11-19T03:38:26;14.8;72.7
78438;SHT31;67736;51.978;5.656;2023-11-19T03:40:55;14.8;72.7
78438;SHT31;67736;51.978;5.656;2023-11-19T03:43:24;14.8;72.7
78438;SHT31;67736;51.978;5.656;2023-11-19T03:45:54;14.7;72.8
78438;SHT31;67736;51.978;5.656;2023-11-19T03:48:24;14.7;72.9
78438;SHT31;67736;51.978;5.656;2023-11-19T03:50:53;14.7;72.9
78438;SHT31;67736;51.978;5.656;2023-11-19T03:53:23;14.7;72.9
78438;SHT31;67736;51.978;5.656;2023-11-19T03:55:53;14.6;72.8
78438;SHT31;67736;51.978;5.656;2023-11-19T03:58:23;14.6;72.9
78438;SHT31;67736;51.978;5.656;2023-11-19T04:00:53;14.6;72.8
78438;SHT31;67736;51.978;5.656;2023-11-19T04:03:22;14.5;72.8
78438;SHT31;67736;51.978;5.656;2023-11-19T04:05:51;14.5;72.8
78438;SHT31;67736;51.978;5.656;2023-11-19T04:08:21;14.5;72.8
78438;SHT31;67736;51.978;5.656;2023-11-19T04:10:50;14.4;72.8
78438;SHT31;67736;51.978;5.656;2023-11-19T04:13:20;14.4;72.7
78438;SHT31;67736;51.978;5.656;2023-11-19T04:15:51;14.4;72.7
78438;SHT31;67736;51.978;5.656;2023-11-19T04:18:20;14.3;72.8
78438;SHT31;67736;51.978;5.656;2023-11-19T04:20:52;14.3;72.7
78438;SHT31;67736;51.978;5.656;2023-11-19T04:23:21;14.3;72.8
78438;SHT31;67736;51.978;5.656;2023-11-19T04:25:52;14.3;72.8
78438;SHT31;67736;51.978;5.656;2023-11-19T04:28:21;14.2;72.7
78438;SHT31;67736;51.978;5.656;2023-11-19T04:30:54;14.2;72.6
78438;SHT31;67736;51.978;5.656;2023-11-19T04:33:24;14.2;72.5
78438;SHT31;67736;51.978;5.656;2023-11-19T04:35:53;14.1;72.6
78438;SHT31;67736;51.978;5.656;2023-11-19T04:38:24;14.1;72.6
78438;SHT31;67736;51.978;5.656;2023-11-19T04:40:54;14.1;72.7
78438;SHT31;67736;51.978;5.656;2023-11-19T04:43:24;14.1;72.8
78438;SHT31;67736;51.978;5.656;2023-11-19T04:45:54;14.1;72.8
78438;SHT31;67736;51.978;5.656;2023-11-19T04:48:23;14.0;72.6
78438;SHT31;67736;51.978;5.656;2023-11-19T04:50:53;14.0;72.7
78438;SHT31;67736;51.978;5.656;2023-11-19T04:53:23;14.0;72.5
78438;SHT31;67736;51.978;5.656;2023-11-19T04:55:52;14.0;72.4
78438;SHT31;67736;51.978;5.656;2023-11-19T04:58:23;14.0;72.4
78438;SHT31;67736;51.978;5.656;2023-11-19T05:00:55;13.9;72.5
78438;SHT31;67736;51.978;5.656;2023-11-19T05:03:24;13.9;72.5
78438;SHT31;67736;51.978;5.656;2023-11-19T05:05:54;13.9;72.5
78438;SHT31;67736;51.978;5.656;2023-11-19T05:08:23;13.9;72.5
78438;SHT31;67736;51.978;5.656;2023-11-19T05:10:55;13.9;72.6
78438;SHT31;67736;51.978;5.656;2023-11-19T05:13:26;13.9;72.6
78438;SHT31;67736;51.978;5.656;2023-11-19T05:15:56;13.8;72.6
78438;SHT31;67736;51.978;5.656;2023-11-19T05:18:26;13.8;72.7
78438;SHT31;67736;51.978;5.656;2023-11-19T05:20:55;13.8;72.9
78438;SHT31;67736;51.978;5.656;2023-11-19T05:23:25;13.8;73.0
78438;SHT31;67736;51.978;5.656;2023-11-19T05:25:54;13.8;72.9
78438;SHT31;67736;51.978;5.656;2023-11-19T05:28:25;13.8;73.0
78438;SHT31;67736;51.978;5.656;2023-11-19T05:30:55;13.8;73.0
78438;SHT31;67736;51.978;5.656;2023-11-19T05:33:24;13.8;72.9
78438;SHT31;67736;51.978;5.656;2023-11-19T05:35:54;13.7;72.9
78438;SHT31;67736;51.978;5.656;2023-11-19T05:38:24;13.7;72.9
78438;SHT31;67736;51.978;5.656;2023-11-19T05:40:54;13.7;72.9
78438;SHT31;67736;51.978;5.656;2023-11-19T05:43:24;13.7;73.1
78438;SHT31;67736;51.978;5.656;2023-11-19T05:45:54;13.7;73.1
78438;SHT31;67736;51.978;5.656;2023-11-19T05:48:25;13.7;73.0
78438;SHT31;67736;51.978;5.656;2023-11-19T05:50:56;13.7;73.0
78438;SHT31;67736;51.978;5.656;2023-11-19T05:53:25;13.7;72.9
78438;SHT31;67736;51.978;5.656;2023-11-19T05:55:55;13.7;72.8
78438;SHT31;67736;51.978;5.656;2023-11-19T05:58:27;13.7;72.8
78438;SHT31;67736;51.978;5.656;2023-11-19T06:00:58;13.7;72.9
78438;SHT31;67736;51.978;5.656;2023-11-19T06:03:30;13.7;72.8
78438;SHT31;67736;51.978;5.656;2023-11-19T06:05:59;13.7;72.9
78438;SHT31;67736;51.978;5.656;2023-11-19T06:08:29;13.7;72.9
78438;SHT31;67736;51.978;5.656;2023-11-19T06:10:59;13.7;72.9
78438;SHT31;67736;51.978;5.656;2023-11-19T06:13:28;13.7;72.9
78438;SHT31;67736;51.978;5.656;2023-11-19T06:15:59;13.7;73.0
78438;SHT31;67736;51.978;5.656;2023-11-19T06:18:29;13.7;72.9
78438;SHT31;67736;51.978;5.656;2023-11-19T06:20:58;13.7;72.9
78438;SHT31;67736;51.978;5.656;2023-11-19T06:23:28;13.6;72.9
78438;SHT31;67736;51.978;5.656;2023-11-19T06:25:57;13.6;72.8
78438;SHT31;67736;51.978;5.656;2023-11-19T06:28:27;13.6;72.9
78438;SHT31;67736;51.978;5.656;2023-11-19T06:30:57;13.6;72.8
78438;SHT31;67736;51.978;5.656;2023-11-19T06:33:26;13.6;72.8
78438;SHT31;67736;51.978;5.656;2023-11-19T06:35:58;13.6;72.8
78438;SHT31;67736;51.978;5.656;2023-11-19T06:38:28;13.6;72.9
78438;SHT31;67736;51.978;5.656;2023-11-19T06:40:58;13.6;72.9
78438;SHT31;67736;51.978;5.656;2023-11-19T06:43:27;13.6;73.0
78438;SHT31;67736;51.978;5.656;2023-11-19T06:45:59;13.6;73.0
78438;SHT31;67736;51.978;5.656;2023-11-19T06:48:29;13.6;73.1
78438;SHT31;67736;51.978;5.656;2023-11-19T06:50:59;13.6;73.0
78438;SHT31;67736;51.978;5.656;2023-11-19T06:53:29;13.6;73.0
78438;SHT31;67736;51.978;5.656;2023-11-19T06:55:58;13.6;73.0
78438;SHT31;67736;51.978;5.656;2023-11-19T06:58:28;13.6;72.9
78438;SHT31;67736;51.978;5.656;2023-11-19T07:00:58;13.6;72.9
78438;SHT31;67736;51.978;5.656;2023-11-19T07:03:29;13.6;72.9
78438;SHT31;67736;51.978;5.656;2023-11-19T07:05:59;13.6;72.8
78438;SHT31;67736;51.978;5.656;2023-11-19T07:08:30;13.6;73.0
78438;SHT31;67736;51.978;5.656;2023-11-19T07:11:00;13.6;73.1
78438;SHT31;67736;51.978;5.656;2023-11-19T07:13:30;13.6;73.1
78438;SHT31;67736;51.978;5.656;2023-11-19T07:16:00;13.6;73.0
78438;SHT31;67736;51.978;5.656;2023-11-19T07:18:30;13.6;72.9
78438;SHT31;67736;51.978;5.656;2023-11-19T07:20:59;13.6;72.8
78438;SHT31;67736;51.978;5.656;2023-11-19T07:23:30;13.6;72.7
78438;SHT31;67736;51.978;5.656;2023-11-19T07:26:04;13.6;72.8
78438;SHT31;67736;51.978;5.656;2023-11-19T07:28:35;13.6;72.7
78438;SHT31;67736;51.978;5.656;2023-11-19T07:31:05;13.6;72.8
78438;SHT31;67736;51.978;5.656;2023-11-19T07:33:36;13.5;72.8
78438;SHT31;67736;51.978;5.656;2023-11-19T07:36:06;13.5;72.7
78438;SHT31;67736;51.978;5.656;2023-11-19T07:38:36;13.5;72.8
78438;SHT31;67736;51.978;5.656;2023-11-19T07:41:06;13.5;73.0
78438;SHT31;67736;51.978;5.656;2023-11-19T07:43:37;13.6;72.9
78438;SHT31;67736;51.978;5.656;2023-11-19T07:46:10;13.6;72.9
78438;SHT31;67736;51.978;5.656;2023-11-19T07:48:40;13.6;73.0
78438;SHT31;67736;51.978;5.656;2023-11-19T07:51:11;13.6;73.0
78438;SHT31;67736;51.978;5.656;2023-11-19T07:53:41;13.6;73.1
78438;SHT31;67736;51.978;5.656;2023-11-19T07:56:11;13.6;73.1
78438;SHT31;67736;51.978;5.656;2023-11-19T07:58:40;13.6;73.1
78438;SHT31;67736;51.978;5.656;2023-11-19T08:01:10;13.6;72.9
78438;SHT31;67736;51.978;5.656;2023-11-19T08:03:41;13.6;72.9
78438;SHT31;67736;51.978;5.656;2023-11-19T08:06:10;13.7;72.8
78438;SHT31;67736;51.978;5.656;2023-11-19T08:08:40;13.7;72.7
78438;SHT31;67736;51.978;5.656;2023-11-19T08:11:10;13.7;72.5
78438;SHT31;67736;51.978;5.656;2023-11-19T08:13:39;13.8;72.3
78438;SHT31;67736;51.978;5.656;2023-11-19T08:16:09;13.8;72.3
78438;SHT31;67736;51.978;5.656;2023-11-19T08:18:40;13.9;72.2
78438;SHT31;67736;51.978;5.656;2023-11-19T08:21:10;13.9;71.8
78438;SHT31;67736;51.978;5.656;2023-11-19T08:23:42;13.9;71.6
78438;SHT31;67736;51.978;5.656;2023-11-19T08:26:12;14.0;71.7
78438;SHT31;67736;51.978;5.656;2023-11-19T08:28:43;14.0;71.4
78438;SHT31;67736;51.978;5.656;2023-11-19T08:31:13;14.1;71.0
78438;SHT31;67736;51.978;5.656;2023-11-19T08:33:42;14.1;70.8
78438;SHT31;67736;51.978;5.656;2023-11-19T08:36:17;14.1;70.6
78438;SHT31;67736;51.978;5.656;2023-11-19T08:38:46;14.2;70.5
78438;SHT31;67736;51.978;5.656;2023-11-19T08:41:16;14.2;70.4
78438;SHT31;67736;51.978;5.656;2023-11-19T08:43:46;14.3;70.3
78438;SHT31;67736;51.978;5.656;2023-11-19T08:46:16;14.3;70.3
78438;SHT31;67736;51.978;5.656;2023-11-19T08:48:46;14.4;70.0
78438;SHT31;67736;51.978;5.656;2023-11-19T08:51:15;14.4;69.8
78438;SHT31;67736;51.978;5.656;2023-11-19T08:53:45;14.4;69.7
78438;SHT31;67736;51.978;5.656;2023-11-19T08:56:14;14.5;69.3
78438;SHT31;67736;51.978;5.656;2023-11-19T08:58:44;14.5;69.2
78438;SHT31;67736;51.978;5.656;2023-11-19T09:01:13;14.6;69.2
78438;SHT31;67736;51.978;5.656;2023-11-19T09:03:43;14.6;68.8
78438;SHT31;67736;51.978;5.656;2023-11-19T09:06:13;14.6;69.0
78438;SHT31;67736;51.978;5.656;2023-11-19T09:08:44;14.7;68.5
78438;SHT31;67736;51.978;5.656;2023-11-19T09:11:13;14.7;68.0
78438;SHT31;67736;51.978;5.656;2023-11-19T09:13:43;14.8;68.0
78438;SHT31;67736;51.978;5.656;2023-11-19T09:16:13;14.8;67.7
78438;SHT31;67736;51.978;5.656;2023-11-19T09:18:43;14.8;67.5
78438;SHT31;67736;51.978;5.656;2023-11-19T09:21:12;14.8;67.6
78438;SHT31;67736;51.978;5.656;2023-11-19T09:23:42;14.9;67.6
78438;SHT31;67736;51.978;5.656;2023-11-19T09:26:13;14.9;67.5
78438;SHT31;67736;51.978;5.656;2023-11-19T09:28:42;14.9;67.3
78438;SHT31;67736;51.978;5.656;2023-11-19T09:31:15;14.9;67.4
78438;SHT31;67736;51.978;5.656;2023-11-19T09:33:45;14.9;67.5
78438;SHT31;67736;51.978;5.656;2023-11-19T09:36:17;15.0;67.6
78438;SHT31;67736;51.978;5.656;2023-11-19T09:38:46;15.0;66.9
78438;SHT31;67736;51.978;5.656;2023-11-19T09:41:16;15.0;67.2
78438;SHT31;67736;51.978;5.656;2023-11-19T09:43:47;15.0;66.8
78438;SHT31;67736;51.978;5.656;2023-11-19T09:46:16;15.0;67.4
78438;SHT31;67736;51.978;5.656;2023-11-19T09:48:46;15.1;67.3
78438;SHT31;67736;51.978;5.656;2023-11-19T09:51:20;15.1;67.3
78438;SHT31;67736;51.978;5.656;2023-11-19T09:53:50;15.1;66.9
78438;SHT31;67736;51.978;5.656;2023-11-19T09:56:20;15.1;66.9
78438;SHT31;67736;51.978;5.656;2023-11-19T09:58:51;15.2;66.7
78438;SHT31;67736;51.978;5.656;2023-11-19T10:01:21;15.2;66.7
78438;SHT31;67736;51.978;5.656;2023-11-19T10:03:57;15.2;66.3
78438;SHT31;67736;51.978;5.656;2023-11-19T10:06:27;15.3;65.8
78438;SHT31;67736;51.978;5.656;2023-11-19T10:08:57;15.3;66.5
78438;SHT31;67736;51.978;5.656;2023-11-19T10:11:27;15.3;65.7
78438;SHT31;67736;51.978;5.656;2023-11-19T10:13:56;15.3;66.0
78438;SHT31;67736;51.978;5.656;2023-11-19T10:16:30;15.4;66.0
78438;SHT31;67736;51.978;5.656;2023-11-19T10:19:03;15.4;65.9
78438;SHT31;67736;51.978;5.656;2023-11-19T10:21:37;15.4;65.6
78438;SHT31;67736;51.978;5.656;2023-11-19T10:24:07;15.4;65.2
78438;SHT31;67736;51.978;5.656;2023-11-19T10:26:37;15.4;65.0
78438;SHT31;67736;51.978;5.656;2023-11-19T10:29:06;15.4;65.2
78438;SHT31;67736;51.978;5.656;2023-11-19T10:31:36;15.4;64.9
78438;SHT31;67736;51.978;5.656;2023-11-19T10:34:23;15.4;64.6
78438;SHT31;67736;51.978;5.656;2023-11-19T10:36:53;15.4;65.2
78438;SHT31;67736;51.978;5.656;2023-11-19T10:39:25;15.4;64.8
78438;SHT31;67736;51.978;5.656;2023-11-19T10:42:16;15.4;65.0
78438;SHT31;67736;51.978;5.656;2023-11-19T10:44:46;15.4;64.8
78438;SHT31;67736;51.978;5.656;2023-11-19T10:47:15;15.5;64.9
78438;SHT31;67736;51.978;5.656;2023-11-19T10:49:48;15.5;64.6
78438;SHT31;67736;51.978;5.656;2023-11-19T10:52:18;15.5;64.4
78438;SHT31;67736;51.978;5.656;2023-11-19T10:54:50;15.5;64.2
78438;SHT31;67736;51.978;5.656;2023-11-19T10:57:21;15.5;64.1
78438;SHT31;67736;51.978;5.656;2023-11-19T11:00:00;15.6;64.5
78438;SHT31;67736;51.978;5.656;2023-11-19T11:02:35;15.6;64.4
78438;SHT31;67736;51.978;5.656;2023-11-19T11:05:11;15.6;64.2
78438;SHT31;67736;51.978;5.656;2023-11-19T11:07:46;15.6;63.6
78438;SHT31;67736;51.978;5.656;2023-11-19T11:10:16;15.7;64.1
78438;SHT31;67736;51.978;5.656;2023-11-19T11:12:50;15.7;63.7
78438;SHT31;67736;51.978;5.656;2023-11-19T11:15:26;15.7;63.6
78438;SHT31;67736;51.978;5.656;2023-11-19T11:18:00;15.7;63.3
78438;SHT31;67736;51.978;5.656;2023-11-19T11:20:33;15.7;62.9
78438;SHT31;67736;51.978;5.656;2023-11-19T11:25:22;15.7;63.3
78438;SHT31;67736;51.978;5.656;2023-11-19T11:28:11;15.7;64.2
78438;SHT31;67736;51.978;5.656;2023-11-19T11:30:59;15.7;64.4
78438;SHT31;67736;51.978;5.656;2023-11-19T11:33:44;15.7;64.2
78438;SHT31;67736;51.978;5.656;2023-11-19T11:36:20;15.7;63.9
78438;SHT31;67736;51.978;5.656;2023-11-19T11:38:52;15.7;64.0
78438;SHT31;67736;51.978;5.656;2023-11-19T11:41:24;15.7;63.9
78438;SHT31;67736;51.978;5.656;2023-11-19T11:43:55;15.7;63.8
78438;SHT31;67736;51.978;5.656;2023-11-19T11:46:57;15.7;64.3
78438;SHT31;67736;51.978;5.656;2023-11-19T11:49:28;15.8;64.0
78438;SHT31;67736;51.978;5.656;2023-11-19T11:52:03;15.8;64.3
78438;SHT31;67736;51.978;5.656;2023-11-19T11:54:33;15.8;63.7
78438;SHT31;67736;51.978;5.656;2023-11-19T11:57:07;15.8;63.2
78438;SHT31;67736;51.978;5.656;2023-11-19T11:59:52;15.8;63.2
78438;SHT31;67736;51.978;5.656;2023-11-19T12:02:22;15.9;62.9
78438;SHT31;67736;51.978;5.656;2023-11-19T12:04:52;15.9;63.0
78438;SHT31;67736;51.978;5.656;2023-11-19T12:07:23;15.9;63.0
78438;SHT31;67736;51.978;5.656;2023-11-19T12:10:07;15.9;62.5
78438;SHT31;67736;51.978;5.656;2023-11-19T12:12:40;15.9;63.2
78438;SHT31;67736;51.978;5.656;2023-11-19T12:15:10;15.9;62.7
78438;SHT31;67736;51.978;5.656;2023-11-19T12:17:46;15.9;62.7
78438;SHT31;67736;51.978;5.656;2023-11-19T12:20:18;15.9;62.8
78438;SHT31;67736;51.978;5.656;2023-11-19T12:22:49;15.9;62.6
78438;SHT31;67736;51.978;5.656;2023-11-19T12:25:19;15.9;62.1
78438;SHT31;67736;51.978;5.656;2023-11-19T12:27:52;15.9;62.0
78438;SHT31;67736;51.978;5.656;2023-11-19T12:30:24;15.9;61.8
78438;SHT31;67736;51.978;5.656;2023-11-19T12:32:56;15.9;61.9
78438;SHT31;67736;51.978;5.656;2023-11-19T12:35:26;15.9;62.1
78438;SHT31;67736;51.978;5.656;2023-11-19T12:37:56;15.9;62.3
78438;SHT31;67736;51.978;5.656;2023-11-19T12:40:25;15.9;62.1
78438;SHT31;67736;51.978;5.656;2023-11-19T12:42:56;15.9;62.3
78438;SHT31;67736;51.978;5.656;2023-11-19T12:45:36;15.9;62.2
78438;SHT31;67736;51.978;5.656;2023-11-19T12:48:07;16.0;62.8
78438;SHT31;67736;51.978;5.656;2023-11-19T12:50:52;16.0;62.6
78438;SHT31;67736;51.978;5.656;2023-11-19T12:53:25;16.0;62.0
78438;SHT31;67736;51.978;5.656;2023-11-19T12:55:56;16.0;61.3
78438;SHT31;67736;51.978;5.656;2023-11-19T12:58:31;16.0;61.9
78438;SHT31;67736;51.978;5.656;2023-11-19T13:01:03;16.0;61.8
78438;SHT31;67736;51.978;5.656;2023-11-19T13:03:34;16.1;61.6
78438;SHT31;67736;51.978;5.656;2023-11-19T13:06:08;16.1;61.9
78438;SHT31;67736;51.978;5.656;2023-11-19T13:08:40;16.1;61.6
78438;SHT31;67736;51.978;5.656;2023-11-19T13:11:11;16.1;61.8
78438;SHT31;67736;51.978;5.656;2023-11-19T13:13:59;16.1;61.7
78438;SHT31;67736;51.978;5.656;2023-11-19T13:16:31;16.1;62.3
78438;SHT31;67736;51.978;5.656;2023-11-19T13:19:00;16.1;62.2
78438;SHT31;67736;51.978;5.656;2023-11-19T13:21:30;16.0;62.4
78438;SHT31;67736;51.978;5.656;2023-11-19T13:24:01;16.0;62.8
78438;SHT31;67736;51.978;5.656;2023-11-19T13:26:30;16.0;62.5
78438;SHT31;67736;51.978;5.656;2023-11-19T13:29:02;16.0;63.0
78438;SHT31;67736;51.978;5.656;2023-11-19T13:31:32;16.0;63.1
78438;SHT31;67736;51.978;5.656;2023-11-19T13:34:02;16.0;62.8
78438;SHT31;67736;51.978;5.656;2023-11-19T13:36:31;16.0;62.8
78438;SHT31;67736;51.978;5.656;2023-11-19T13:39:01;16.0;62.7
78438;SHT31;67736;51.978;5.656;2023-11-19T13:41:33;16.0;62.4
78438;SHT31;67736;51.978;5.656;2023-11-19T13:44:02;16.0;62.7
78438;SHT31;67736;51.978;5.656;2023-11-19T13:46:32;16.0;62.6
78438;SHT31;67736;51.978;5.656;2023-11-19T13:49:02;16.0;63.0
78438;SHT31;67736;51.978;5.656;2023-11-19T13:51:31;16.0;64.0
78438;SHT31;67736;51.978;5.656;2023-11-19T13:54:01;16.0;64.5
78438;SHT31;67736;51.978;5.656;2023-11-19T13:56:30;16.0;64.4
78438;SHT31;67736;51.978;5.656;2023-11-19T13:59:00;15.9;64.0
78438;SHT31;67736;51.978;5.656;2023-11-19T14:01:31;15.9;64.5
78438;SHT31;67736;51.978;5.656;2023-11-19T14:04:00;15.9;64.7
78438;SHT31;67736;51.978;5.656;2023-11-19T14:06:30;15.9;64.9
78438;SHT31;67736;51.978;5.656;2023-11-19T14:09:00;15.8;64.9
78438;SHT31;67736;51.978;5.656;2023-11-19T14:11:30;15.8;65.4
78438;SHT31;67736;51.978;5.656;2023-11-19T14:14:00;15.8;65.1
78438;SHT31;67736;51.978;5.656;2023-11-19T14:16:29;15.8;65.0
78438;SHT31;67736;51.978;5.656;2023-11-19T14:18:59;15.8;65.3
78438;SHT31;67736;51.978;5.656;2023-11-19T14:21:29;15.7;65.0
78438;SHT31;67736;51.978;5.656;2023-11-19T14:23:59;15.7;64.5
78438;SHT31;67736;51.978;5.656;2023-11-19T14:26:28;15.7;64.0
78438;SHT31;67736;51.978;5.656;2023-11-19T14:28:58;15.7;64.0
78438;SHT31;67736;51.978;5.656;2023-11-19T14:31:29;15.7;64.0
78438;SHT31;67736;51.978;5.656;2023-11-19T14:33:59;15.7;63.9
78438;SHT31;67736;51.978;5.656;2023-11-19T14:36:29;15.7;64.3
78438;SHT31;67736;51.978;5.656;2023-11-19T14:38:58;15.6;63.9
78438;SHT31;67736;51.978;5.656;2023-11-19T14:41:29;15.6;63.8
78438;SHT31;67736;51.978;5.656;2023-11-19T14:43:58;15.6;63.8
78438;SHT31;67736;51.978;5.656;2023-11-19T14:46:30;15.6;63.7
78438;SHT31;67736;51.978;5.656;2023-11-19T14:49:00;15.5;63.9
78438;SHT31;67736;51.978;5.656;2023-11-19T14:51:31;15.5;64.3
78438;SHT31;67736;51.978;5.656;2023-11-19T14:54:02;15.5;64.5
78438;SHT31;67736;51.978;5.656;2023-11-19T14:56:32;15.5;64.7
78438;SHT31;67736;51.978;5.656;2023-11-19T14:59:04;15.4;64.8
78438;SHT31;67736;51.978;5.656;2023-11-19T15:01:35;15.4;64.4
78438;SHT31;67736;51.978;5.656;2023-11-19T15:04:04;15.4;64.8
78438;SHT31;67736;51.978;5.656;2023-11-19T15:06:34;15.4;64.6
78438;SHT31;67736;51.978;5.656;2023-11-19T15:09:04;15.4;64.8
78438;SHT31;67736;51.978;5.656;2023-11-19T15:11:35;15.3;65.1
78438;SHT31;67736;51.978;5.656;2023-11-19T15:14:04;15.3;65.1
78438;SHT31;67736;51.978;5.656;2023-11-19T15:16:34;15.3;65.2
78438;SHT31;67736;51.978;5.656;2023-11-19T15:19:03;15.3;65.3
78438;SHT31;67736;51.978;5.656;2023-11-19T15:21:34;15.3;65.5
78438;SHT31;67736;51.978;5.656;2023-11-19T15:24:04;15.2;65.6
78438;SHT31;67736;51.978;5.656;2023-11-19T15:26:35;15.2;65.5
78438;SHT31;67736;51.978;5.656;2023-11-19T15:29:05;15.2;65.5
78438;SHT31;67736;51.978;5.656;2023-11-19T15:31:35;15.2;65.3
78438;SHT31;67736;51.978;5.656;2023-11-19T15:34:04;15.2;65.6
78438;SHT31;67736;51.978;5.656;2023-11-19T15:36:37;15.2;65.5
78438;SHT31;67736;51.978;5.656;2023-11-19T15:39:07;15.2;65.6
78438;SHT31;67736;51.978;5.656;2023-11-19T15:41:36;15.2;65.9
78438;SHT31;67736;51.978;5.656;2023-11-19T15:44:07;15.2;65.9
78438;SHT31;67736;51.978;5.656;2023-11-19T15:46:36;15.1;66.0
78438;SHT31;67736;51.978;5.656;2023-11-19T15:49:09;15.1;66.1
78438;SHT31;67736;51.978;5.656;2023-11-19T15:51:39;15.1;66.2
78438;SHT31;67736;51.978;5.656;2023-11-19T15:54:08;15.1;66.3
78438;SHT31;67736;51.978;5.656;2023-11-19T15:56:38;15.1;66.5
78438;SHT31;67736;51.978;5.656;2023-11-19T15:59:08;15.1;66.9
78438;SHT31;67736;51.978;5.656;2023-11-19T16:01:37;15.1;67.2
78438;SHT31;67736;51.978;5.656;2023-11-19T16:04:07;15.1;67.3
78438;SHT31;67736;51.978;5.656;2023-11-19T16:06:37;15.1;67.2
78438;SHT31;67736;51.978;5.656;2023-11-19T16:09:07;15.1;67.2
78438;SHT31;67736;51.978;5.656;2023-11-19T16:11:39;15.0;67.5
78438;SHT31;67736;51.978;5.656;2023-11-19T16:14:11;15.0;67.3
78438;SHT31;67736;51.978;5.656;2023-11-19T16:16:42;15.0;67.1
78438;SHT31;67736;51.978;5.656;2023-11-19T16:19:12;15.0;67.1
78438;SHT31;67736;51.978;5.656;2023-11-19T16:21:41;15.0;67.1
78438;SHT31;67736;51.978;5.656;2023-11-19T16:24:11;15.0;67.2
78438;SHT31;67736;51.978;5.656;2023-11-19T16:26:41;14.9;67.3
78438;SHT31;67736;51.978;5.656;2023-11-19T16:29:11;14.9;67.5